Station: MT LOFTY AWS

  Atmospheric Gas Attenuation - ITU Rec 676-11   --------------- db/100km ---------------
Date Time Temp RH % AH g/m3 Dew Point Wind Direction Speed kph Gust kph Barometer mB Rainfall Since 9am 24GHz 47GHz 76GHz 122GHz 134GHz 241GHz
21 19:30 8.2 89 7.46 6.5 30 59 1013.1 0 17.4 25.6 37.9 99.3 89.9 308.0
21 19:20 8.2 88 7.37 6.3 32 54 1013.1 0 17.2 25.5 37.5 98.3 88.7 303.7
21 19:10 8.3 86 7.25 6.1 33 46 1013.1 0 16.9 25.3 37.0 96.9 86.9 297.6
21 19:00 8.4 83 7.04 5.7 30 52 1013.1 0 16.5 24.9 36.1 94.4 84.0 287.3
21 18:50 8.4 81 6.87 5.3 24 30 1013.1 0 16.1 24.6 35.4 92.6 81.7 279.3
21 18:40 8.6 81 6.96 5.5 30 54 1013.1 0 16.3 24.7 35.7 93.3 82.7 282.8
21 18:30 8.6 87 7.48 6.6 26 44 1013.1 0 17.4 25.6 37.8 99.0 89.7 307.3
21 18:20 8.6 90 7.74 7 30 43 1013.1 0 18.0 26.0 38.9 101.9 93.3 319.8
21 18:10 8.7 91 7.87 7.3 28 43 1013.1 0 18.3 26.2 39.3 103.2 94.9 325.6
21 18:00 8.8 92 8.01 7.6 28 54 1013.1 0 18.6 26.4 39.9 104.6 96.7 332.0
21 17:50 9.2 88 7.86 7.3 30 44 1013.1 0 18.2 26.0 39.1 102.4 94.2 323.1
21 17:40 9.7 85 7.84 7.3 28 39 1013.1 0 18.2 25.8 38.7 101.6 93.3 320.1
21 17:30 10.1 78 7.38 6.4 30 48 1013.1 0 17.1 25.0 36.7 96.0 86.6 296.8
21 17:20 10.3 77 7.38 6.4 30 39 1013.1 0 17.1 24.9 36.6 95.8 86.4 296.1
21 17:10 10.4 76 7.33 6.3 26 33 1013.1 0 17.0 24.8 36.3 95.1 85.7 293.4
21 17:00 10.8 74 7.32 6.4 30 63 1013.1 0 17.0 24.7 36.1 94.6 85.1 291.5
21 16:50 10.7 76 7.47 6.6 24 32 1013.1 0 17.3 24.9 36.7 96.3 87.2 298.7
21 16:40 10.7 77 7.56 6.8 26 41 1013.1 0 17.5 25.1 37.1 97.2 88.4 302.9
21 16:30 10.8 75 7.41 6.6 24 46 1013.1 0 17.2 24.8 36.5 95.5 86.3 295.6
21 16:20 11 74 7.41 6.5 32 43 1013.1 0 17.2 24.8 36.4 95.3 86.0 294.8
21 16:10 11.1 79 7.96 7.6 20 28 1013.1 0 18.3 25.6 38.5 101.1 93.2 320.0
21 16:00 10.6 79 7.71 7.1 24 46 1013.1 0 17.8 25.4 37.8 99.0 90.5 310.3
21 15:50 10.6 80 7.81 7.3 20 37 1013.1 0 18.0 25.5 38.2 100.1 91.8 315.0
21 15:40 10.6 78 7.61 6.9 24 32 1013.1 0 17.6 25.2 37.4 97.9 89.1 305.6
21 15:30 10.6 78 7.61 6.9 20 46 1013.1 0 17.6 25.2 37.4 97.9 89.1 305.6
21 15:20 10.5 82 7.95 7.5 19 28 1013.1 0 18.4 25.8 38.8 101.7 93.8 322.0
21 15:10 10.2 82 7.81 7.2 20 33 1013.1 0 18.1 25.6 38.4 100.6 92.3 316.6
21 15:00 10 82 7.71 7.1 20 41 1013.1 0 17.9 25.5 38.1 99.7 91.2 312.7
21 14:50 9.9 83 7.75 7.1 24 32 1013.1 0 17.9 25.6 38.3 100.3 91.8 315.0
21 14:40 10.7 76 7.47 6.6 20 35 1013.1 0 17.3 24.9 36.7 96.3 87.2 298.7
21 14:30 11 76 7.61 6.9 24 43 1013.1 0 17.6 25.1 37.2 97.4 88.7 304.1
21 14:20 11.4 74 7.6 6.9 30 48 1013.1 0 17.6 25.0 36.9 96.8 88.1 302.1
21 14:10 10.9 77 7.66 7 28 44 1013.1 0 17.7 25.2 37.4 98.1 89.5 306.8
21 14:00 10.8 77 7.61 6.9 26 46 1013.1 0 17.6 25.1 37.3 97.7 88.9 304.9
21 13:50 10.9 74 7.36 6.4 30 44 1013.1 0 17.1 24.7 36.2 94.9 85.5 292.9
21 13:40 11.2 72 7.3 6.3 19 37 1013.1 0 16.9 24.5 35.8 93.9 84.4 289.1
21 13:30 11 71 7.11 6 24 46 1013.1 0 16.5 24.3 35.2 92.1 82.1 281.1
21 13:20 12.1 74 7.94 7.6 24 39 1013.1 0 18.3 25.3 38.0 99.6 91.8 315.0
21 13:10 10.9 71 7.06 5.8 39 57 1013.1 0 16.4 24.2 35.0 91.7 81.6 279.2
21 13:00 11 71 7.11 6 26 54 1013.1 0 16.5 24.3 35.2 92.1 82.1 281.1
21 12:50 11.2 72 7.3 6.3 26 37 1013.1 0 16.9 24.5 35.8 93.9 84.4 289.1
21 12:40 10.5 71 6.89 5.6 26 32 1013.1 0 16.1 24.1 34.5 90.4 79.8 272.9
21 12:30 10.4 68 6.56 4.8 26 43 1013.1 0 15.4 23.6 33.3 87.0 75.6 258.3
21 12:20 10.4 67 6.46 4.5 24 39 1013.1 0 15.2 23.4 32.9 86.0 74.4 253.9
21 12:10 10.4 65 6.27 4.1 24 33 1013.1 0 14.8 23.1 32.2 84.1 72.0 245.4
21 12:00 10.6 64 6.25 4.1 30 52 1013.1 0 14.7 23.0 32.0 83.6 71.5 243.9
21 11:50 10.6 62 6.05 3.6 32 50 1013.1 0 14.3 22.7 31.3 81.6 69.0 235.1
21 11:40 10.6 61 5.96 3.4 32 41 1013.1 0 14.1 22.6 30.9 80.7 67.9 231.2
21 11:30 10.6 60 5.86 3.2 28 57 1013.1 0 13.9 22.4 30.5 79.7 66.7 226.8
21 11:20 10.9 59 5.87 3.2 32 46 1013.1 0 13.9 22.4 30.5 79.5 66.5 226.4
21 11:10 10.8 59 5.83 3.1 35 48 1013.1 0 13.8 22.4 30.4 79.2 66.1 224.9
21 11:00 10.8 58 5.73 2.9 30 52 1013.1 0 13.6 22.2 30.0 78.2 64.9 220.6
21 10:50 11 55 5.51 2.3 39 54 1013.1 0 13.1 21.8 29.1 75.8 62.0 210.6
21 10:40 10.8 54 5.34 1.8 30 48 1013.1 0 12.8 21.6 28.5 74.3 60.1 203.9
21 10:30 11.4 52 5.34 1.9 32 69 1013.1 0 12.7 21.5 28.3 73.8 59.7 202.4
21 10:20 11.4 53 5.44 2.1 22 30 1013.1 0 13.0 21.6 28.7 74.8 60.9 206.6
21 10:10 11.3 50 5.1 1.2 28 44 1013.1 0 12.2 21.2 27.5 71.6 56.9 192.6
21 10:00 10.9 48 4.78 0.3 28 54 1013.1 0 11.6 20.8 26.5 68.8 53.4 180.2
21 09:50 10.8 51 5.04 1 22 33 1013.1 0 12.1 21.2 27.5 71.4 56.5 191.2
21 09:40 10.5 53 5.14 1.3 20 26 1013.1 0 12.3 21.4 27.9 72.7 57.9 196.2
21 09:30 10 56 5.26 1.6 19 39 1013.1 0 12.6 21.7 28.5 74.3 59.8 202.5
21 09:20 9.5 60 5.46 2.1 17 22 1013.1 0 13.1 22.1 29.5 76.8 62.6 212.4
21 09:10 9.1 60 5.33 1.7 19 32 1013.1 0 12.8 22.0 29.1 75.8 61.3 207.8
21 09:00 8.7 65 5.62 2.5 20 39 1013.1 0 13.4 22.6 30.4 79.2 65.2 221.6
21 08:50 8.5 62 5.3 1.6 20 30 1013.1 2 12.8 22.1 29.2 76.1 61.4 208.1
21 08:40 8.3 64 5.4 1.9 20 30 1013.1 2 13.0 22.3 29.7 77.3 62.8 213.0
21 08:30 7.9 67 5.51 2.2 17 37 1013.1 2 13.2 22.6 30.2 78.8 64.5 218.9
21 08:20 7.6 67 5.4 2 17 24 1013.1 2 13.0 22.5 29.9 78.0 63.4 214.9
21 08:10 7.2 73 5.73 2.7 15 20 1013.1 2 13.7 23.1 31.3 81.8 67.9 230.8
21 08:00 6.9 76 5.85 3 15 30 1013.1 2 14.0 23.4 31.9 83.4 69.7 237.1
21 07:50 6.6 77 5.82 2.8 13 19 1013.1 2 13.9 23.4 31.9 83.4 69.6 236.7
21 07:40 6.4 79 5.89 3 20 32 1013.1 2 14.1 23.6 32.3 84.3 70.7 240.5
21 07:30 6.1 82 5.99 3.3 17 28 1013.1 2 14.3 23.8 32.8 85.7 72.3 246.0
21 07:20 5.9 84 6.06 3.4 19 24 1013.1 2 14.5 24.0 33.2 86.7 73.4 249.9
21 07:10 5.8 87 6.24 3.8 19 22 1013.1 2 14.9 24.3 34.0 88.8 75.9 258.7
21 07:00 5.9 88 6.35 4.1 15 26 1013.1 2 15.1 24.4 34.4 89.9 77.3 263.6
21 06:50 5.7 90 6.41 4.2 15 20 1013.1 2 15.2 24.6 34.7 90.8 78.3 267.1
21 06:40 5.7 92 6.55 4.5 17 24 1013.1 2 15.5 24.8 35.3 92.3 80.2 273.8
21 06:30 5.5 94 6.61 4.6 13 19 1013.1 2 15.7 25.0 35.6 93.2 81.3 277.3
21 06:20 5.6 93 6.58 4.5 11 19 1013.1 2 15.6 24.9 35.4 92.7 80.7 275.5
21 06:10 5.8 91 6.52 4.4 9 11 1013.1 2 15.5 24.8 35.1 91.8 79.7 272.0
21 06:00 6.1 88 6.43 4.3 13 22 1013.1 2 15.3 24.5 34.6 90.5 78.2 266.7
21 05:50 6.2 87 6.4 4.2 9 13 1013.1 2 15.2 24.4 34.4 90.1 77.7 264.9
21 05:40 6.5 86 6.45 4.3 13 24 1013.1 2 15.3 24.4 34.5 90.3 78.1 266.3
21 05:30 6.6 86 6.5 4.4 17 28 1013.1 2 15.4 24.5 34.7 90.7 78.6 268.3
21 05:20 6.8 85 6.5 4.4 17 24 1013.1 2 15.4 24.4 34.6 90.5 78.4 267.6
21 05:10 6.8 86 6.58 4.6 19 24 1013.1 2 15.6 24.6 34.9 91.3 79.5 271.3
21 04:50 6.9 87 6.7 4.9 19 24 1013.1 2 15.8 24.7 35.4 92.5 81.0 276.7
21 04:40 6.9 87 6.7 4.9 13 17 1013.1 2 15.8 24.7 35.4 92.5 81.0 276.7
21 04:30 7 88 6.82 5.2 17 30 1013.1 2 16.1 24.9 35.8 93.7 82.5 282.0
21 04:20 7 88 6.82 5.1 17 24 1013.1 2 16.1 24.9 35.8 93.7 82.5 282.0
21 04:10 7 89 6.9 5.3 13 19 1013.1 2 16.2 25.0 36.1 94.6 83.6 285.8
21 04:00 7 89 6.9 5.3 15 26 1013.1 2 16.2 25.0 36.1 94.6 83.6 285.8
21 03:50 6.9 88 6.78 5 15 19 1013.1 2 16.0 24.9 35.7 93.4 82.1 280.5
21 03:40 6.9 88 6.78 5 17 20 1013.1 2 16.0 24.9 35.7 93.4 82.1 280.5
21 03:30 6.7 88 6.69 4.9 13 24 1013.1 2 15.8 24.8 35.4 92.6 81.1 276.9
21 03:20 6.8 88 6.73 4.9 15 20 1013.1 2 15.9 24.8 35.5 93.0 81.5 278.4
21 03:10 6.9 87 6.7 4.9 15 30 1013.1 2 15.8 24.7 35.4 92.5 81.0 276.7
21 03:00 7 87 6.74 5 15 30 1013.1 2 15.9 24.8 35.5 92.8 81.4 278.2
21 02:50 7.1 86 6.71 5 11 20 1013.1 2 15.8 24.7 35.3 92.4 80.9 276.4

Last Refresh: 21-Sep-2020 19:41:37

Most of the information presented on this site is sourced from the Bureau of Meteorology.  Copyright in all material sourced from the Bureau of Meteorology resides with the Commonwealth of Australia.